Time;durP1;ratioP1;P1;durP2;ratioP2;P2;SDS_P1;SDS_P2;PMS_P1;PMS_P2;Temp;Humidity;BMP_temperature;BMP_pressure;BME280_temperature;BME280_humidity;BME280_pressure;Samples;Min_cycle;Max_cycle;Signal;HPM_P1;HPM_P2
2023/01/10 00:00:51;;;;;;;0.75;0.75;;;4.10;99.90;;;;;;5066185;28;20058;-75
2023/01/10 00:03:18;;;;;;;1.50;0.90;;;4.10;99.90;;;;;;5041066;28;20110;-76
2023/01/10 00:05:43;;;;;;;1.17;1.00;;;4.20;99.90;;;;;;5062151;28;20033;-75
2023/01/10 00:08:14;;;;;;;0.88;0.88;;;4.20;99.90;;;;;;5063797;28;20041;-75
2023/01/10 00:10:40;;;;;;;0.90;0.70;;;4.20;99.90;;;;;;5066789;28;20040;-75
2023/01/10 00:13:24;;;;;;;0.60;0.60;;;4.20;99.90;;;;;;5062872;28;20061;-74
2023/01/10 00:15:54;;;;;;;0.68;0.68;;;4.10;99.90;;;;;;5063106;28;20097;-75
2023/01/10 00:18:21;;;;;;;0.55;0.55;;;4.10;99.90;;;;;;5060463;28;20028;-75
2023/01/10 00:20:50;;;;;;;2.95;0.90;;;4.20;99.90;;;;;;5058760;28;20035;-75
2023/01/10 00:23:18;;;;;;;0.50;0.50;;;4.20;99.90;;;;;;5052439;28;20037;-75
2023/01/10 00:25:44;;;;;;;0.70;0.70;;;4.10;99.90;;;;;;5058508;28;20031;-76
2023/01/10 00:28:18;;;;;;;1.05;0.95;;;4.20;99.90;;;;;;5061044;28;20044;-75
2023/01/10 00:31:00;;;;;;;0.63;0.63;;;4.10;99.90;;;;;;5061884;28;20056;-75
2023/01/10 00:33:27;;;;;;;0.68;0.68;;;4.10;99.90;;;;;;5058348;28;20028;-75
2023/01/10 00:35:53;;;;;;;0.93;0.82;;;4.10;99.90;;;;;;5065789;28;20536;-75
2023/01/10 00:38:18;;;;;;;0.60;0.60;;;4.10;99.90;;;;;;5062411;28;20037;-76
2023/01/10 00:40:45;;;;;;;0.60;0.60;;;4.10;99.90;;;;;;5061188;28;20021;-75
2023/01/10 00:45:56;;;;;;;0.80;0.80;;;4.10;99.90;;;;;;5064789;28;20357;-75
2023/01/10 00:48:21;;;;;;;0.70;0.70;;;4.10;99.90;;;;;;5059929;28;22197;-75
2023/01/10 00:50:47;;;;;;;1.23;1.20;;;4.10;99.90;;;;;;5061176;28;20119;-75
2023/01/10 00:53:13;;;;;;;0.85;0.85;;;4.10;99.90;;;;;;5064565;28;20048;-75
2023/01/10 00:55:39;;;;;;;0.98;0.90;;;4.10;99.90;;;;;;5066184;28;20055;-75
2023/01/10 00:58:05;;;;;;;2.83;0.98;;;4.10;99.90;;;;;;5066984;28;20040;-75
2023/01/10 01:00:30;;;;;;;0.70;0.70;;;4.00;99.90;;;;;;5064143;28;20049;-75
2023/01/10 01:02:56;;;;;;;1.75;0.75;;;4.00;99.90;;;;;;5065442;28;20032;-75
2023/01/10 01:05:22;;;;;;;0.82;0.82;;;4.00;99.90;;;;;;5064804;28;20029;-75
2023/01/10 01:07:48;;;;;;;1.35;0.90;;;4.00;99.90;;;;;;5066702;28;20174;-75
2023/01/10 01:10:26;;;;;;;0.80;0.80;;;4.00;99.90;;;;;;5062463;28;20484;-74
2023/01/10 01:12:59;;;;;;;2.43;0.90;;;4.00;99.90;;;;;;5063399;28;20036;-76
2023/01/10 01:15:26;;;;;;;0.70;0.70;;;4.00;99.90;;;;;;5067884;28;20028;-75
2023/01/10 01:17:52;;;;;;;0.80;0.80;;;4.00;99.90;;;;;;5063716;28;20531;-75
2023/01/10 01:20:19;;;;;;;1.58;1.05;;;4.00;99.90;;;;;;5060721;28;20032;-75
2023/01/10 01:22:45;;;;;;;1.30;1.23;;;3.90;99.90;;;;;;5064002;28;20041;-75
2023/01/10 01:25:10;;;;;;;1.20;1.20;;;3.90;99.90;;;;;;5065975;28;20070;-76
2023/01/10 01:27:37;;;;;;;0.95;0.95;;;3.90;99.90;;;;;;5063025;28;20040;-75
2023/01/10 01:30:07;;;;;;;0.63;0.63;;;3.90;99.90;;;;;;5065338;28;20109;-75
2023/01/10 01:32:33;;;;;;;1.25;1.25;;;3.90;99.90;;;;;;5060057;28;20052;-75
2023/01/10 01:34:59;;;;;;;1.23;1.20;;;3.90;99.90;;;;;;5061992;28;20413;-75
2023/01/10 01:37:24;;;;;;;0.80;0.80;;;4.00;99.90;;;;;;5061607;28;20025;-75
2023/01/10 01:39:50;;;;;;;1.00;0.95;;;4.00;99.90;;;;;;5060786;28;20036;-76
2023/01/10 01:42:32;;;;;;;2.38;2.17;;;4.00;99.90;;;;;;5062706;28;20052;-75
2023/01/10 01:45:12;;;;;;;1.02;1.02;;;4.00;99.90;;;;;;5065372;28;20057;-75
2023/01/10 01:47:50;;;;;;;1.20;1.20;;;3.90;99.90;;;;;;5063181;28;20040;-75
2023/01/10 01:50:21;;;;;;;0.93;0.93;;;3.90;99.90;;;;;;5062495;28;20017;-76
2023/01/10 01:52:50;;;;;;;1.38;1.35;;;3.80;99.90;;;;;;5060528;28;20036;-76
2023/01/10 01:55:16;;;;;;;2.30;1.40;;;3.80;99.90;;;;;;5063470;28;20025;-76
2023/01/10 01:57:44;;;;;;;1.73;1.45;;;3.80;99.90;;;;;;5060846;28;20662;-76
2023/01/10 02:00:12;;;;;;;0.90;0.90;;;3.80;99.90;;;;;;5065080;28;20500;-82
2023/01/10 02:02:45;;;;;;;1.25;1.25;;;3.80;99.90;;;;;;5067096;28;20176;-76
2023/01/10 02:05:13;;;;;;;1.13;1.10;;;3.80;99.90;;;;;;5071558;28;20041;-76
2023/01/10 02:07:43;;;;;;;1.20;1.10;;;3.80;99.90;;;;;;5073541;28;20032;-76
2023/01/10 02:10:16;;;;;;;1.20;1.20;;;3.80;99.90;;;;;;5077560;28;20025;-76
2023/01/10 02:12:45;;;;;;;1.73;1.40;;;3.70;99.90;;;;;;5071237;28;20051;-75
2023/01/10 02:15:13;;;;;;;1.08;0.98;;;3.70;99.90;;;;;;5074064;28;20025;-76
2023/01/10 02:17:39;;;;;;;1.45;1.35;;;3.70;99.90;;;;;;5069749;28;20028;-76
2023/01/10 02:20:08;;;;;;;0.93;0.93;;;3.70;99.90;;;;;;5072793;28;20051;-76
2023/01/10 02:22:41;;;;;;;1.10;1.10;;;3.70;99.90;;;;;;5071926;28;20036;-76
2023/01/10 02:25:12;;;;;;;2.25;1.08;;;3.70;99.90;;;;;;5071543;28;20039;-76
2023/01/10 02:28:06;;;;;;;1.00;1.00;;;3.70;99.90;;;;;;5075099;28;20128;-76
2023/01/10 02:30:54;;;;;;;0.80;0.80;;;3.70;99.90;;;;;;5072240;28;20488;-76
2023/01/10 02:33:28;;;;;;;1.77;1.67;;;3.70;99.90;;;;;;5077329;28;20033;-76
2023/01/10 02:36:06;;;;;;;4.38;1.50;;;3.70;99.90;;;;;;5077671;28;21392;-76
2023/01/10 02:38:44;;;;;;;0.80;0.80;;;3.70;99.90;;;;;;5077820;28;20055;-76
2023/01/10 02:41:27;;;;;;;0.90;0.90;;;3.80;99.90;;;;;;5072837;28;20288;-76
2023/01/10 02:44:03;;;;;;;0.73;0.73;;;3.80;99.90;;;;;;5075290;28;20130;-76
2023/01/10 02:46:31;;;;;;;1.35;1.25;;;3.70;99.90;;;;;;5080004;28;20087;-77
2023/01/10 02:48:56;;;;;;;1.10;1.10;;;3.70;99.90;;;;;;5077446;28;21181;-76
2023/01/10 02:51:23;;;;;;;1.20;1.20;;;3.70;99.90;;;;;;5077930;28;20047;-76
2023/01/10 02:54:13;;;;;;;1.73;1.30;;;3.80;99.90;;;;;;5077448;28;20033;-76
2023/01/10 02:56:47;;;;;;;1.23;1.20;;;3.80;99.90;;;;;;5077737;28;20047;-77
2023/01/10 02:59:56;;;;;;;1.50;1.40;;;3.80;99.90;;;;;;5073397;28;20052;-76
2023/01/10 03:02:49;;;;;;;1.58;1.48;;;3.80;99.90;;;;;;5064761;28;20504;-76
2023/01/10 03:05:31;;;;;;;2.70;1.50;;;3.80;99.90;;;;;;5076352;28;20028;-76
2023/01/10 03:08:26;;;;;;;1.38;1.27;;;3.80;99.90;;;;;;5081692;28;20043;-76
2023/01/10 03:11:04;;;;;;;1.55;1.45;;;3.80;99.90;;;;;;5081962;28;20028;-76
2023/01/10 03:13:51;;;;;;;0.90;0.90;;;3.70;99.90;;;;;;5084625;28;20511;-76
2023/01/10 03:16:27;;;;;;;2.20;1.83;;;3.70;99.90;;;;;;5084957;28;20023;-76
2023/01/10 03:18:59;;;;;;;2.00;1.80;;;3.80;99.90;;;;;;5084390;28;20043;-76
2023/01/10 03:21:28;;;;;;;1.52;1.42;;;3.80;99.90;;;;;;5077183;28;20081;-76
2023/01/10 03:23:57;;;;;;;;;;;3.80;99.90;;;;;;5088980;28;20079;-76
2023/01/10 03:26:34;;;;;;;1.95;1.85;;;3.80;99.90;;;;;;5081125;28;19915;-76
2023/01/10 03:29:06;;;;;;;1.40;1.30;;;3.80;99.90;;;;;;5082927;28;20048;-76
2023/01/10 03:31:45;;;;;;;1.67;1.58;;;3.80;99.90;;;;;;5081654;28;20067;-76
2023/01/10 03:34:11;;;;;;;1.38;1.38;;;3.80;99.90;;;;;;5077975;28;20354;-76
2023/01/10 03:36:45;;;;;;;1.88;1.60;;;3.70;99.90;;;;;;5081083;28;20039;-76
2023/01/10 03:39:38;;;;;;;1.60;1.15;;;3.80;99.90;;;;;;5076527;28;20037;-76
2023/01/10 03:42:21;;;;;;;2.65;1.98;;;3.80;99.90;;;;;;5074174;28;20068;-76
2023/01/10 03:44:59;;;;;;;1.45;1.35;;;3.80;99.90;;;;;;5079032;28;20059;-76
2023/01/10 03:47:31;;;;;;;4.25;4.00;;;3.80;99.90;;;;;;5086477;28;20039;-76
2023/01/10 03:50:02;;;;;;;1.85;1.60;;;3.80;99.90;;;;;;5086361;28;20040;-76
2023/01/10 03:52:30;;;;;;;2.90;2.50;;;3.80;99.90;;;;;;5078774;28;20024;-77
2023/01/10 03:54:57;;;;;;;1.73;1.63;;;3.80;99.90;;;;;;5084027;28;20128;-76
2023/01/10 03:57:23;;;;;;;1.77;1.67;;;3.80;99.90;;;;;;5079750;28;20044;-76
2023/01/10 03:59:52;;;;;;;1.83;1.73;;;3.80;99.90;;;;;;5080330;28;20356;-76
2023/01/10 04:02:18;;;;;;;;;;;3.70;99.90;;;;;;5081726;28;20037;-76
2023/01/10 04:04:43;;;;;;;1.67;1.58;;;3.70;99.90;;;;;;5081375;28;19912;-76
2023/01/10 04:07:09;;;;;;;1.90;1.80;;;3.70;99.90;;;;;;5079305;28;20169;-76
2023/01/10 04:09:34;;;;;;;1.33;1.30;;;3.70;99.90;;;;;;5076407;28;20093;-76
2023/01/10 04:12:00;;;;;;;2.08;1.60;;;3.70;99.90;;;;;;5079035;28;20025;-76
2023/01/10 04:14:26;;;;;;;1.50;1.40;;;3.70;99.90;;;;;;5085939;28;20102;-76
2023/01/10 04:16:52;;;;;;;1.50;1.40;;;3.70;99.90;;;;;;5078332;28;20029;-76
2023/01/10 04:19:18;;;;;;;5.38;1.50;;;3.70;99.90;;;;;;5084303;28;20036;-76
2023/01/10 04:21:43;;;;;;;1.33;1.33;;;3.70;99.90;;;;;;5083650;28;20041;-76
2023/01/10 04:24:09;;;;;;;0.95;0.95;;;3.70;99.90;;;;;;5081085;28;20037;-76
2023/01/10 04:26:35;;;;;;;0.90;0.90;;;3.70;99.90;;;;;;5081893;28;20075;-76
2023/01/10 04:29:00;;;;;;;0.90;0.90;;;3.80;99.90;;;;;;5080507;28;20033;-76
2023/01/10 04:31:26;;;;;;;2.03;1.77;;;3.70;99.90;;;;;;5078166;28;20058;-76
2023/01/10 04:33:52;;;;;;;0.90;0.90;;;3.70;99.90;;;;;;5079279;28;20094;-76
2023/01/10 04:36:17;;;;;;;0.98;0.98;;;3.70;99.90;;;;;;5080483;28;20032;-76
2023/01/10 04:38:43;;;;;;;1.05;1.05;;;3.80;99.90;;;;;;5084664;28;20033;-76
2023/01/10 04:41:09;;;;;;;1.08;1.08;;;3.80;99.90;;;;;;5084908;28;20032;-76
2023/01/10 04:43:34;;;;;;;1.15;1.15;;;3.80;99.90;;;;;;5081810;28;20181;-76
2023/01/10 04:46:00;;;;;;;0.90;0.90;;;3.80;99.90;;;;;;5080393;28;20032;-76
2023/01/10 04:48:26;;;;;;;0.70;0.70;;;3.80;99.90;;;;;;5082252;28;20059;-76
2023/01/10 04:50:53;;;;;;;0.80;0.80;;;3.80;99.90;;;;;;5084663;28;20036;-76
2023/01/10 04:53:19;;;;;;;0.90;0.90;;;3.70;99.90;;;;;;5077062;28;20032;-76
2023/01/10 04:55:46;;;;;;;0.90;0.90;;;3.70;99.90;;;;;;5090968;28;20178;-76
2023/01/10 04:58:12;;;;;;;1.10;1.10;;;3.70;99.90;;;;;;5078013;28;20043;-76
2023/01/10 05:00:37;;;;;;;1.10;1.10;;;3.70;99.90;;;;;;5084995;28;20060;-76
2023/01/10 05:03:03;;;;;;;1.20;1.20;;;3.70;99.90;;;;;;5080525;28;20484;-76
2023/01/10 05:05:30;;;;;;;1.20;1.10;;;3.70;99.90;;;;;;5083196;28;20040;-76
2023/01/10 05:07:55;;;;;;;0.93;0.93;;;3.70;99.90;;;;;;5078343;28;20036;-76
2023/01/10 05:10:21;;;;;;;1.00;1.00;;;3.70;99.90;;;;;;5081797;28;20824;-76
2023/01/10 05:12:46;;;;;;;0.80;0.80;;;3.70;99.90;;;;;;5081314;28;20047;-76
2023/01/10 05:15:12;;;;;;;0.88;0.88;;;3.70;99.90;;;;;;5081374;28;20035;-76
2023/01/10 05:17:38;;;;;;;0.73;0.73;;;3.70;99.90;;;;;;5080769;28;20043;-76
2023/01/10 05:20:04;;;;;;;0.70;0.70;;;3.70;99.90;;;;;;5080316;28;20366;-76
2023/01/10 05:22:30;;;;;;;1.13;1.02;;;3.70;99.90;;;;;;5073661;28;20039;-76
2023/01/10 05:24:55;;;;;;;0.80;0.80;;;3.70;99.90;;;;;;5081574;28;20084;-76
2023/01/10 05:27:21;;;;;;;0.90;0.90;;;3.60;99.90;;;;;;5082026;28;20040;-76
2023/01/10 05:29:46;;;;;;;0.70;0.70;;;3.70;99.90;;;;;;5084613;28;20095;-76
2023/01/10 05:32:12;;;;;;;0.90;0.90;;;3.70;99.90;;;;;;5076869;28;20085;-76
2023/01/10 05:34:37;;;;;;;0.80;0.80;;;3.70;99.90;;;;;;5085423;28;20086;-76
2023/01/10 05:37:03;;;;;;;0.93;0.68;;;3.70;99.90;;;;;;5083828;28;20047;-76
2023/01/10 05:39:29;;;;;;;0.93;0.93;;;3.70;99.90;;;;;;5082470;28;20025;-77
2023/01/10 05:41:54;;;;;;;1.10;1.10;;;3.60;99.90;;;;;;5079105;28;20056;-76
2023/01/10 05:44:20;;;;;;;0.70;0.70;;;3.60;99.90;;;;;;5081149;28;20100;-76
2023/01/10 05:46:45;;;;;;;0.65;0.65;;;3.70;99.90;;;;;;5077860;28;20032;-77
2023/01/10 05:49:11;;;;;;;0.70;0.70;;;3.70;99.90;;;;;;5079759;28;20054;-76
2023/01/10 05:51:36;;;;;;;0.80;0.80;;;3.70;99.90;;;;;;5081880;28;20212;-76
2023/01/10 05:54:02;;;;;;;1.48;0.95;;;3.70;99.90;;;;;;5082769;28;20036;-77
2023/01/10 05:56:28;;;;;;;0.65;0.60;;;3.60;99.90;;;;;;5079185;28;20036;-76
2023/01/10 05:58:54;;;;;;;1.00;0.90;;;3.60;99.90;;;;;;5076250;28;20054;-76
2023/01/10 06:01:20;;;;;;;0.80;0.80;;;3.60;99.90;;;;;;5081025;28;20036;-76
2023/01/10 06:03:45;;;;;;;1.10;1.10;;;3.60;99.90;;;;;;5082762;28;20055;-76
2023/01/10 06:06:11;;;;;;;0.93;0.90;;;3.60;99.90;;;;;;5082984;28;20075;-76
2023/01/10 06:08:36;;;;;;;0.90;0.90;;;3.60;99.90;;;;;;5080430;28;20060;-77
2023/01/10 06:11:03;;;;;;;1.27;1.20;;;3.60;99.90;;;;;;5076026;28;20078;-76
2023/01/10 06:13:29;;;;;;;0.80;0.80;;;3.60;99.90;;;;;;5078806;28;20663;-76
2023/01/10 06:15:55;;;;;;;0.85;0.85;;;3.60;99.90;;;;;;5080157;28;20032;-76
2023/01/10 06:18:21;;;;;;;0.85;0.85;;;3.60;99.90;;;;;;5079908;28;20048;-77
2023/01/10 06:20:46;;;;;;;1.08;1.08;;;3.60;99.90;;;;;;5098465;28;20396;-76
2023/01/10 06:23:12;;;;;;;0.85;0.85;;;3.60;99.90;;;;;;5082577;28;20043;-76
2023/01/10 06:25:40;;;;;;;1.25;1.25;;;3.70;99.90;;;;;;5084045;28;20059;-76
2023/01/10 06:28:07;;;;;;;1.48;1.38;;;3.60;99.90;;;;;;5084281;28;20052;-77
2023/01/10 06:30:34;;;;;;;1.38;1.27;;;3.70;99.90;;;;;;5077534;28;20058;-77
2023/01/10 06:33:07;;;;;;;1.08;1.08;;;3.60;99.90;;;;;;5076832;28;20476;-76
2023/01/10 06:35:33;;;;;;;1.13;1.10;;;3.70;99.90;;;;;;5078102;28;20033;-76
2023/01/10 06:37:59;;;;;;;0.85;0.85;;;3.70;99.90;;;;;;5085070;28;20036;-77
2023/01/10 06:40:25;;;;;;;1.08;1.05;;;3.70;99.90;;;;;;5087673;28;20015;-76
2023/01/10 06:42:51;;;;;;;1.15;1.15;;;3.70;99.90;;;;;;5078945;28;20039;-77
2023/01/10 06:45:17;;;;;;;1.23;1.23;;;3.70;99.90;;;;;;5083411;28;20060;-77
2023/01/10 06:47:43;;;;;;;1.33;1.30;;;3.70;99.90;;;;;;5077147;28;20054;-77
2023/01/10 06:50:09;;;;;;;1.92;0.95;;;3.80;99.90;;;;;;5091593;28;20032;-76
2023/01/10 06:52:35;;;;;;;1.10;1.08;;;3.80;99.90;;;;;;5080413;28;20041;-76
2023/01/10 06:55:00;;;;;;;1.50;1.42;;;3.80;99.90;;;;;;5114069;27;20139;-76
2023/01/10 06:57:27;;;;;;;1.17;1.17;;;3.80;99.90;;;;;;5085737;28;20985;-76
2023/01/10 06:59:53;;;;;;;1.90;1.42;;;3.80;99.90;;;;;;5082110;28;20052;-76
2023/01/10 07:02:18;;;;;;;3.35;1.40;;;3.80;99.90;;;;;;5078332;28;20036;-75
2023/01/10 07:04:44;;;;;;;2.42;1.38;;;3.80;99.90;;;;;;5089163;28;20040;-76
2023/01/10 07:07:10;;;;;;;0.73;0.73;;;3.80;99.90;;;;;;5081951;28;20052;-75
2023/01/10 07:09:35;;;;;;;1.65;1.10;;;3.80;99.90;;;;;;5089822;28;20028;-75
2023/01/10 07:12:01;;;;;;;1.20;1.20;;;3.80;99.90;;;;;;5081465;28;20035;-77
2023/01/10 07:14:26;;;;;;;1.08;1.08;;;3.70;99.90;;;;;;5083599;28;20032;-76
2023/01/10 07:16:52;;;;;;;0.80;0.80;;;3.70;99.90;;;;;;5080928;28;20082;-76
2023/01/10 07:19:18;;;;;;;1.27;1.27;;;3.70;99.90;;;;;;5080438;28;20035;-76
2023/01/10 07:21:44;;;;;;;0.90;0.90;;;3.70;99.90;;;;;;5079159;28;20028;-76
2023/01/10 07:24:10;;;;;;;1.65;1.55;;;3.70;99.90;;;;;;5079548;28;20406;-77
2023/01/10 07:26:36;;;;;;;1.58;1.30;;;3.70;99.90;;;;;;5084389;28;20032;-76
2023/01/10 07:29:01;;;;;;;3.72;1.00;;;3.60;99.90;;;;;;5082205;28;20388;-76
2023/01/10 07:31:27;;;;;;;1.58;1.25;;;3.50;99.90;;;;;;5085260;28;20051;-76
2023/01/10 07:33:53;;;;;;;1.20;1.13;;;3.50;99.90;;;;;;5085961;28;20324;-76
2023/01/10 07:36:19;;;;;;;1.02;1.02;;;3.40;99.90;;;;;;5085212;28;20028;-77
2023/01/10 07:38:44;;;;;;;2.72;1.35;;;3.30;99.90;;;;;;5085378;28;20025;-76
2023/01/10 07:41:10;;;;;;;1.90;1.50;;;3.30;99.90;;;;;;5088623;28;21250;-77
2023/01/10 07:43:36;;;;;;;1.02;1.02;;;3.20;99.90;;;;;;5084884;28;20028;-76
2023/01/10 07:46:03;;;;;;;1.00;1.00;;;3.20;99.90;;;;;;5087261;28;20028;-77
2023/01/10 07:48:29;;;;;;;1.30;1.20;;;3.20;99.90;;;;;;5116944;27;20044;-76
2023/01/10 07:50:56;;;;;;;2.25;1.02;;;3.20;99.90;;;;;;5074530;28;20031;-75
2023/01/10 07:53:22;;;;;;;1.40;1.23;;;3.20;99.90;;;;;;5076917;28;20036;-75
2023/01/10 07:55:48;;;;;;;3.03;1.40;;;3.20;99.90;;;;;;5076170;28;20035;-77
2023/01/10 07:58:13;;;;;;;4.05;2.17;;;3.10;99.90;;;;;;5076951;28;20111;-76
2023/01/10 08:00:40;;;;;;;0.98;0.98;;;3.10;99.90;;;;;;5082482;28;20060;-76
2023/01/10 08:03:05;;;;;;;3.38;1.40;;;3.10;99.90;;;;;;5083181;28;20032;-76
2023/01/10 08:05:31;;;;;;;2.97;1.65;;;3.10;99.90;;;;;;5080449;28;20036;-76
2023/01/10 08:08:05;;;;;;;2.03;1.83;;;3.10;99.90;;;;;;5078743;28;20032;-76
2023/01/10 08:10:33;;;;;;;1.58;1.48;;;3.20;99.90;;;;;;5082117;28;20065;-76
2023/01/10 08:12:59;;;;;;;1.92;1.77;;;3.30;99.90;;;;;;5080124;28;20039;-76
2023/01/10 08:15:24;;;;;;;1.77;1.55;;;3.40;99.90;;;;;;5087018;28;20465;-76
2023/01/10 08:17:50;;;;;;;2.88;1.92;;;3.40;99.90;;;;;;5087202;28;20057;-77
2023/01/10 08:20:15;;;;;;;8.15;1.60;;;3.50;99.90;;;;;;5090862;28;20099;-76
2023/01/10 08:22:41;;;;;;;1.80;1.48;;;3.50;99.90;;;;;;5084231;28;20028;-76
2023/01/10 08:25:07;;;;;;;1.63;1.52;;;3.40;99.90;;;;;;5085529;28;20048;-77
2023/01/10 08:27:33;;;;;;;2.15;1.95;;;3.40;99.90;;;;;;5085133;28;20032;-77
2023/01/10 08:29:58;;;;;;;3.03;1.80;;;3.50;99.90;;;;;;5088035;28;20028;-76
2023/01/10 08:32:24;;;;;;;0.45;0.45;;;3.50;99.90;;;;;;5082039;28;20936;-77
2023/01/10 08:34:49;;;;;;;2.10;1.63;;;3.50;99.90;;;;;;5084264;28;20035;-77
2023/01/10 08:37:15;;;;;;;2.45;2.00;;;3.60;99.90;;;;;;5078601;28;20035;-77
2023/01/10 08:39:41;;;;;;;3.45;2.10;;;3.60;99.90;;;;;;5085683;28;20169;-79
2023/01/10 08:42:06;;;;;;;4.47;2.33;;;3.70;99.90;;;;;;5080382;28;20036;-80
2023/01/10 08:44:32;;;;;;;3.53;1.70;;;3.60;99.90;;;;;;5085300;28;20023;-79
2023/01/10 08:46:58;;;;;;;2.33;1.80;;;3.60;99.90;;;;;;5084310;28;20120;-79
2023/01/10 08:49:23;;;;;;;0.93;0.93;;;3.60;99.90;;;;;;5084773;28;20024;-78
2023/01/10 08:51:49;;;;;;;1.38;1.20;;;3.70;99.90;;;;;;5086271;28;20037;-79
2023/01/10 08:54:14;;;;;;;3.90;0.93;;;3.80;99.90;;;;;;5082368;28;20035;-79
2023/01/10 08:56:40;;;;;;;1.10;1.05;;;3.80;99.90;;;;;;5082233;28;20081;-79
2023/01/10 08:59:07;;;;;;;1.20;1.10;;;3.80;99.90;;;;;;5085751;28;20099;-79
2023/01/10 09:01:32;;;;;;;4.18;1.35;;;3.90;99.90;;;;;;5080939;28;20100;-79
2023/01/10 09:03:58;;;;;;;1.20;1.13;;;3.90;99.90;;;;;;5085010;28;20496;-79
2023/01/10 09:06:24;;;;;;;0.73;0.65;;;3.90;99.90;;;;;;5091188;28;20039;-78
2023/01/10 09:08:49;;;;;;;3.40;0.90;;;3.90;99.90;;;;;;5090206;28;20098;-79
2023/01/10 09:11:15;;;;;;;7.00;1.05;;;3.90;99.90;;;;;;5085076;28;20033;-79
2023/01/10 09:13:41;;;;;;;0.75;0.75;;;4.00;99.90;;;;;;5085829;28;20039;-78
2023/01/10 09:16:07;;;;;;;1.63;1.30;;;3.90;99.90;;;;;;5080930;28;20032;-79
2023/01/10 09:18:33;;;;;;;0.98;0.98;;;4.00;99.90;;;;;;5084469;28;20032;-79
2023/01/10 09:20:59;;;;;;;2.50;1.00;;;4.00;99.90;;;;;;5083096;28;20054;-79
2023/01/10 09:23:25;;;;;;;0.88;0.88;;;4.00;99.90;;;;;;5082639;28;20035;-80
2023/01/10 09:25:53;;;;;;;2.67;1.40;;;4.00;99.90;;;;;;5091796;28;20066;-79
2023/01/10 09:28:20;;;;;;;2.92;1.58;;;4.10;99.90;;;;;;5082736;28;20043;-79
2023/01/10 09:30:46;;;;;;;0.90;0.85;;;4.00;99.90;;;;;;5091218;28;20040;-79
2023/01/10 09:33:12;;;;;;;5.82;5.28;;;4.10;99.90;;;;;;5083280;28;20033;-79
2023/01/10 09:35:39;;;;;;;1.20;0.82;;;4.10;99.90;;;;;;5080757;28;20024;-79
2023/01/10 09:38:09;;;;;;;1.58;0.80;;;4.10;99.90;;;;;;5084258;28;20028;-81
2023/01/10 09:41:10;;;;;;;1.10;1.10;;;4.10;99.90;;;;;;5087057;28;20047;-81
2023/01/10 09:43:56;;;;;;;1.45;1.30;;;4.20;99.90;;;;;;5020632;28;20034;-79
2023/01/10 09:46:33;;;;;;;0.50;0.50;;;4.20;99.90;;;;;;5073574;28;20028;-79
2023/01/10 09:49:09;;;;;;;1.65;0.88;;;4.20;99.90;;;;;;5087194;28;20044;-79
2023/01/10 09:51:39;;;;;;;1.42;1.42;;;4.20;99.90;;;;;;5080564;28;20078;-79
2023/01/10 09:54:15;;;;;;;2.03;1.00;;;4.20;99.90;;;;;;5080576;28;20123;-79
2023/01/10 09:56:41;;;;;;;0.95;0.90;;;4.20;99.90;;;;;;5087364;28;20032;-79
2023/01/10 09:59:19;;;;;;;5.25;1.27;;;4.30;99.90;;;;;;5084106;28;20045;-79
2023/01/10 10:01:47;;;;;;;1.20;1.20;;;4.30;99.90;;;;;;5084094;28;20045;-79
2023/01/10 10:04:22;;;;;;;1.23;0.90;;;4.30;99.90;;;;;;5083970;28;20032;-80
2023/01/10 10:06:50;;;;;;;2.38;1.33;;;4.30;99.90;;;;;;5087893;28;20028;-79
2023/01/10 10:09:22;;;;;;;3.08;1.02;;;4.30;99.90;;;;;;5082805;28;20056;-79
2023/01/10 10:11:59;;;;;;;1.33;1.13;;;4.40;99.90;;;;;;5080991;28;20057;-77
2023/01/10 10:14:33;;;;;;;2.63;1.73;;;4.40;99.90;;;;;;5080849;28;20060;-76
2023/01/10 10:17:11;;;;;;;2.03;1.27;;;4.40;99.90;;;;;;5084778;28;20037;-77
2023/01/10 10:19:51;;;;;;;0.88;0.88;;;4.40;99.90;;;;;;5081621;28;20012;-77
2023/01/10 10:22:56;;;;;;;2.15;1.20;;;4.40;99.90;;;;;;5081363;28;20028;-77
2023/01/10 10:25:32;;;;;;;1.02;0.95;;;4.40;99.90;;;;;;5074774;28;20029;-77
2023/01/10 10:28:23;;;;;;;2.58;1.00;;;4.40;99.90;;;;;;5078469;28;20064;-77
2023/01/10 10:31:35;;;;;;;1.15;1.15;;;4.40;99.90;;;;;;5080531;28;20480;-77
2023/01/10 10:34:24;;;;;;;3.17;1.30;;;4.40;99.90;;;;;;5050688;28;20639;-78
2023/01/10 10:36:54;;;;;;;1.27;1.00;;;4.40;99.90;;;;;;5080562;28;20035;-77
2023/01/10 10:39:35;;;;;;;5.65;1.30;;;4.40;99.90;;;;;;5084838;28;20032;-77
2023/01/10 10:42:03;;;;;;;0.73;0.73;;;4.40;99.90;;;;;;5084092;28;20058;-77
2023/01/10 10:44:54;;;;;;;4.57;1.45;;;4.40;99.90;;;;;;5086584;28;20029;-77
2023/01/10 10:47:22;;;;;;;2.17;1.35;;;4.40;99.90;;;;;;5082646;28;20072;-76
2023/01/10 10:50:05;;;;;;;2.13;1.10;;;4.40;99.90;;;;;;5080759;28;20048;-77
2023/01/10 10:52:35;;;;;;;2.55;1.55;;;4.40;99.90;;;;;;5083744;28;20031;-77
2023/01/10 10:55:04;;;;;;;1.42;1.33;;;4.50;99.90;;;;;;5078546;28;20484;-76
2023/01/10 10:57:32;;;;;;;1.15;1.13;;;4.50;99.90;;;;;;5084652;28;20035;-77
2023/01/10 11:00:00;;;;;;;1.80;1.20;;;4.50;99.90;;;;;;5084330;28;20206;-76
2023/01/10 11:02:32;;;;;;;1.80;1.45;;;4.50;99.90;;;;;;5080060;28;20056;-77
2023/01/10 11:05:01;;;;;;;4.90;1.27;;;4.50;99.90;;;;;;5085892;28;20032;-77
2023/01/10 11:07:32;;;;;;;1.55;1.15;;;4.50;99.90;;;;;;5088175;28;20121;-77
2023/01/10 11:10:07;;;;;;;5.38;1.60;;;4.60;99.90;;;;;;5086449;28;20044;-77
2023/01/10 11:12:34;;;;;;;2.90;1.45;;;4.60;99.90;;;;;;5083417;28;20024;-77
2023/01/10 11:15:00;;;;;;;4.50;1.88;;;4.70;99.90;;;;;;5088988;28;20023;-77
2023/01/10 11:17:30;;;;;;;1.27;1.17;;;4.70;99.90;;;;;;5086306;28;20047;-77
2023/01/10 11:20:02;;;;;;;2.20;1.48;;;4.70;99.90;;;;;;5082229;28;20206;-77
2023/01/10 11:22:37;;;;;;;1.73;1.52;;;4.70;99.90;;;;;;5081529;28;20028;-77
2023/01/10 11:25:03;;;;;;;1.85;1.75;;;4.70;99.90;;;;;;5090016;28;20020;-78
2023/01/10 11:27:33;;;;;;;4.38;1.65;;;4.80;99.90;;;;;;5092972;28;20127;-78
2023/01/10 11:30:02;;;;;;;1.80;1.42;;;4.80;99.90;;;;;;5086168;28;20040;-78
2023/01/10 11:32:46;;;;;;;1.33;1.30;;;4.80;99.90;;;;;;5075796;28;20041;-81
2023/01/10 11:35:27;;;;;;;2.15;1.25;;;4.90;99.90;;;;;;5075616;28;20029;-77
2023/01/10 11:38:12;;;;;;;1.50;1.40;;;5.00;99.90;;;;;;5084800;28;20024;-78
2023/01/10 11:40:38;;;;;;;1.98;1.60;;;4.90;99.90;;;;;;5086628;28;20032;-77
2023/01/10 11:43:24;;;;;;;1.30;1.23;;;5.00;99.90;;;;;;5086210;28;20050;-78
2023/01/10 11:46:01;;;;;;;1.95;1.08;;;5.00;99.90;;;;;;5086564;28;21112;-77
2023/01/10 11:48:49;;;;;;;1.05;0.95;;;5.00;99.90;;;;;;5088920;28;20063;-78
2023/01/10 11:51:24;;;;;;;1.20;1.10;;;5.00;99.90;;;;;;5083087;28;20057;-77
2023/01/10 11:54:14;;;;;;;2.78;1.52;;;5.00;99.90;;;;;;5089509;28;20044;-77
2023/01/10 11:56:42;;;;;;;1.30;1.30;;;5.00;99.90;;;;;;5095542;28;20047;-78
2023/01/10 11:59:17;;;;;;;2.95;1.38;;;5.00;99.90;;;;;;5089320;28;20098;-77
2023/01/10 12:02:12;;;;;;;1.38;0.95;;;5.00;99.90;;;;;;5093437;28;20040;-78
2023/01/10 12:04:43;;;;;;;4.70;1.77;;;5.10;99.90;;;;;;5063980;28;20544;-76
2023/01/10 12:07:10;;;;;;;8.30;1.95;;;5.10;99.90;;;;;;5089639;28;20069;-77
2023/01/10 12:09:52;;;;;;;1.42;1.20;;;5.10;99.90;;;;;;5084966;28;20438;-77
2023/01/10 12:12:27;;;;;;;2.65;1.38;;;5.10;99.90;;;;;;5087306;28;20055;-77
2023/01/10 12:14:55;;;;;;;3.08;1.83;;;5.10;99.90;;;;;;5108270;27;20104;-78
2023/01/10 12:17:28;;;;;;;1.60;1.00;;;5.10;99.90;;;;;;5086918;28;20048;-77
2023/01/10 12:19:59;;;;;;;1.88;1.05;;;5.10;99.90;;;;;;5085318;28;20028;-78
2023/01/10 12:22:39;;;;;;;2.92;1.77;;;5.00;99.90;;;;;;5087146;28;20109;-77
2023/01/10 12:25:14;;;;;;;2.47;0.80;;;5.00;99.90;;;;;;5084150;28;20035;-77
2023/01/10 12:27:41;;;;;;;1.00;1.00;;;5.00;99.90;;;;;;5082606;28;20068;-78
2023/01/10 12:30:14;;;;;;;0.80;0.80;;;4.90;99.90;;;;;;5087873;28;20028;-77
2023/01/10 12:33:01;;;;;;;1.83;0.98;;;4.90;99.90;;;;;;5088877;28;20141;-77
2023/01/10 12:35:47;;;;;;;2.83;1.33;;;4.90;99.90;;;;;;5075611;28;20044;-77
2023/01/10 12:44:43;;;;;;;2.97;1.70;;;5.00;99.90;;;;;;5087051;28;20100;-77
2023/01/10 12:47:27;;;;;;;3.22;1.50;;;5.00;99.90;;;;;;5080875;28;20020;-77
2023/01/10 12:50:03;;;;;;;3.20;2.20;;;5.10;99.90;;;;;;5093947;28;20661;-77
2023/01/10 12:52:44;;;;;;;5.28;1.67;;;5.10;99.90;;;;;;5086921;28;20058;-77
2023/01/10 12:55:14;;;;;;;0.95;0.85;;;5.10;99.90;;;;;;5091571;28;20435;-77
2023/01/10 12:57:41;;;;;;;2.22;1.52;;;5.00;99.90;;;;;;5086423;28;20047;-78
2023/01/10 13:00:19;;;;;;;7.63;1.30;;;5.00;99.90;;;;;;5094024;28;20075;-77
2023/01/10 13:02:46;;;;;;;1.25;1.15;;;5.00;99.90;;;;;;5082423;28;20037;-77
2023/01/10 13:05:18;;;;;;;0.88;0.88;;;5.00;99.90;;;;;;5082052;28;20387;-77
2023/01/10 13:07:47;;;;;;;1.38;1.13;;;5.00;99.90;;;;;;5088041;28;20093;-77
2023/01/10 13:10:17;;;;;;;1.23;0.80;;;5.10;99.90;;;;;;5089562;28;20028;-77
2023/01/10 13:13:05;;;;;;;1.30;1.02;;;5.10;99.90;;;;;;5086383;28;20028;-78
2023/01/10 13:15:56;;;;;;;1.77;1.30;;;5.10;99.90;;;;;;5053625;28;20119;-78
2023/01/10 13:18:25;;;;;;;1.95;1.05;;;5.20;99.90;;;;;;5065251;28;20092;-77
2023/01/10 13:21:12;;;;;;;4.85;1.52;;;5.30;99.90;;;;;;5082324;28;20020;-78
2023/01/10 13:23:49;;;;;;;1.00;0.93;;;5.30;99.90;;;;;;5081059;28;20031;-78